createdAt,value
2022-11-20T00:00:58.528Z,59.79
2022-11-20T00:03:24.938Z,59.45
2022-11-20T00:05:51.395Z,59.66
2022-11-20T00:08:17.764Z,59.60
2022-11-20T00:10:44.131Z,59.55
2022-11-20T00:13:10.608Z,59.79
2022-11-20T00:15:37.026Z,59.72
2022-11-20T00:18:03.644Z,59.18
2022-11-20T00:20:30.294Z,59.90
2022-11-20T00:22:56.723Z,59.66
2022-11-20T00:25:23.178Z,59.62
2022-11-20T00:27:49.586Z,59.56
2022-11-20T00:30:16.072Z,60.01
2022-11-20T00:32:42.550Z,59.68
2022-11-20T00:35:09.181Z,59.89
2022-11-20T00:37:35.611Z,59.62
2022-11-20T00:40:02.005Z,59.83
2022-11-20T00:42:28.501Z,60.10
2022-11-20T00:44:54.926Z,59.54
2022-11-20T00:47:24.159Z,59.81
2022-11-20T00:49:50.759Z,60.36
2022-11-20T00:52:17.153Z,59.89
2022-11-20T00:54:43.640Z,60.02
2022-11-20T00:57:10.017Z,59.71
2022-11-20T00:59:36.482Z,60.25
2022-11-20T01:02:02.914Z,60.25
2022-11-20T01:04:29.540Z,60.11
2022-11-20T01:06:55.943Z,59.86
2022-11-20T01:09:22.551Z,60.00
2022-11-20T01:11:49.354Z,59.91
2022-11-20T01:14:18.797Z,59.88
2022-11-20T01:16:49.105Z,60.34
2022-11-20T01:19:18.718Z,60.19
2022-11-20T01:21:47.484Z,59.73
2022-11-20T01:24:16.706Z,59.69
2022-11-20T01:26:45.793Z,59.84
2022-11-20T01:29:17.928Z,60.32
2022-11-20T01:31:44.798Z,59.77
2022-11-20T01:34:15.043Z,60.26
2022-11-20T01:36:45.065Z,59.93
2022-11-20T01:39:14.851Z,60.10
2022-11-20T01:42:05.724Z,60.24
2022-11-20T01:44:58.905Z,59.89
2022-11-20T01:47:50.244Z,60.05
2022-11-20T01:50:36.940Z,59.96
2022-11-20T01:53:09.514Z,60.25
2022-11-20T01:55:40.308Z,59.99
2022-11-20T01:58:07.542Z,60.04
2022-11-20T02:00:34.023Z,60.45
2022-11-20T02:03:10.285Z,59.62
2022-11-20T02:05:47.014Z,59.92
2022-11-20T02:08:14.041Z,60.01
2022-11-20T02:10:40.453Z,60.12
2022-11-20T02:13:25.638Z,59.95
2022-11-20T02:15:52.720Z,59.75
2022-11-20T02:18:21.546Z,59.92
2022-11-20T02:20:51.365Z,59.95
2022-11-20T02:23:32.054Z,60.01
2022-11-20T02:26:02.050Z,59.95
2022-11-20T02:28:28.475Z,60.31
2022-11-20T02:30:54.939Z,60.09
2022-11-20T02:33:24.120Z,60.07
2022-11-20T02:35:50.575Z,59.77
2022-11-20T02:38:17.142Z,59.73
2022-11-20T02:40:43.921Z,59.86
2022-11-20T02:43:10.456Z,59.93
2022-11-20T02:45:37.507Z,60.15
2022-11-20T02:48:04.496Z,60.07
2022-11-20T02:50:31.029Z,59.88
2022-11-20T02:52:57.551Z,59.81
2022-11-20T02:55:24.055Z,59.62
2022-11-20T02:57:50.589Z,59.59
2022-11-20T03:00:19.672Z,59.68
2022-11-20T03:02:46.167Z,59.60
2022-11-20T03:05:12.661Z,60.15
2022-11-20T03:07:39.374Z,59.95
2022-11-20T03:10:06.646Z,60.01
2022-11-20T03:12:34.230Z,59.98
2022-11-20T03:15:00.623Z,60.29
2022-11-20T03:17:27.143Z,60.16
2022-11-20T03:19:53.710Z,60.02
2022-11-20T03:22:21.290Z,59.98
2022-11-20T03:24:48.096Z,59.83
2022-11-20T03:27:14.558Z,60.00
2022-11-20T03:29:44.201Z,60.36
2022-11-20T03:32:10.772Z,60.33
2022-11-20T03:34:37.227Z,60.42
2022-11-20T03:37:03.664Z,59.55
2022-11-20T03:39:30.077Z,60.02
2022-11-20T03:41:56.450Z,59.88
2022-11-20T03:44:23.145Z,59.83
2022-11-20T03:46:49.709Z,60.00
2022-11-20T03:49:18.522Z,59.71
2022-11-20T03:51:45.180Z,59.96
2022-11-20T03:54:11.591Z,59.96
2022-11-20T03:56:40.322Z,60.26
2022-11-20T03:59:07.103Z,60.30
2022-11-20T04:01:37.244Z,60.13
2022-11-20T04:04:03.950Z,59.58
2022-11-20T04:06:34.279Z,59.62
2022-11-20T04:09:01.123Z,59.63
2022-11-20T04:11:31.242Z,59.62
2022-11-20T04:14:00.620Z,59.74
2022-11-20T04:16:29.809Z,60.12
2022-11-20T04:18:58.429Z,59.78
2022-11-20T04:21:27.927Z,60.06
2022-11-20T04:23:55.052Z,60.23
2022-11-20T04:26:23.710Z,60.39
2022-11-20T04:28:50.837Z,59.96
2022-11-20T04:31:19.902Z,59.57
2022-11-20T04:33:47.226Z,59.88
2022-11-20T04:36:16.377Z,59.67
2022-11-20T04:38:43.701Z,59.76
2022-11-20T04:41:17.272Z,60.22
2022-11-20T04:43:48.911Z,60.21
2022-11-20T04:46:15.922Z,60.03
2022-11-20T04:48:42.593Z,59.68
2022-11-20T04:51:08.982Z,59.99
2022-11-20T04:53:35.415Z,60.05
2022-11-20T04:56:03.270Z,59.64
2022-11-20T04:58:29.865Z,59.94
2022-11-20T05:01:09.510Z,59.65
2022-11-20T05:03:41.011Z,60.00
2022-11-20T05:06:09.977Z,59.62
2022-11-20T05:08:36.579Z,60.31
2022-11-20T05:11:11.883Z,59.79
2022-11-20T05:13:39.237Z,60.03
2022-11-20T05:16:12.361Z,59.49
2022-11-20T05:18:42.417Z,60.10
2022-11-20T05:21:10.103Z,59.32
2022-11-20T05:23:36.846Z,59.44
2022-11-20T05:26:04.057Z,59.43
2022-11-20T05:28:31.336Z,59.93
2022-11-20T05:31:15.242Z,59.46
2022-11-20T05:33:43.793Z,59.87
2022-11-20T05:36:11.231Z,60.03
2022-11-20T05:38:37.975Z,60.17
2022-11-20T05:41:16.613Z,59.30
2022-11-20T05:43:45.327Z,59.20
2022-11-20T05:46:14.250Z,59.10
2022-11-20T05:48:44.303Z,59.27
2022-11-20T05:51:13.254Z,59.35
2022-11-20T05:53:42.535Z,59.70
2022-11-20T05:56:16.428Z,59.52
2022-11-20T05:58:43.263Z,59.28
2022-11-20T06:01:16.344Z,59.51
2022-11-20T06:03:44.583Z,59.21
2022-11-20T06:06:13.395Z,59.05
2022-11-20T06:08:39.921Z,59.17
2022-11-20T06:11:08.709Z,59.23
2022-11-20T06:13:40.552Z,58.83
2022-11-20T06:16:08.629Z,59.46
2022-11-20T06:18:35.150Z,58.81
2022-11-20T06:21:13.594Z,59.14
2022-11-20T06:23:40.107Z,59.14
2022-11-20T06:26:12.241Z,59.53
2022-11-20T06:28:39.408Z,59.77
2022-11-20T06:31:08.507Z,59.11
2022-11-20T06:33:35.098Z,59.62
2022-11-20T06:36:07.210Z,59.51
2022-11-20T06:38:35.457Z,59.45
2022-11-20T06:41:01.902Z,59.03
2022-11-20T06:43:30.418Z,59.00
2022-11-20T06:46:02.907Z,59.32
2022-11-20T06:48:33.052Z,59.28
2022-11-20T06:50:59.864Z,58.96
2022-11-20T06:53:26.463Z,58.96
2022-11-20T06:55:56.566Z,58.65
2022-11-20T06:58:23.071Z,58.03
2022-11-20T07:00:49.507Z,57.53
2022-11-20T07:03:15.950Z,57.37
2022-11-20T07:05:42.494Z,57.64
2022-11-20T07:08:09.799Z,57.48
2022-11-20T07:10:36.434Z,57.66
2022-11-20T07:13:03.179Z,58.01
2022-11-20T07:15:31.987Z,58.18
2022-11-20T07:18:07.270Z,58.21
2022-11-20T07:20:33.691Z,58.50
2022-11-20T07:23:00.329Z,57.95
2022-11-20T07:25:28.311Z,58.47
2022-11-20T07:28:01.909Z,57.90
2022-11-20T07:30:29.266Z,58.22
2022-11-20T07:32:59.763Z,58.50
2022-11-20T07:35:26.706Z,58.23
2022-11-20T07:37:53.231Z,58.47
2022-11-20T07:40:20.808Z,58.59
2022-11-20T07:42:55.512Z,58.45
2022-11-20T07:45:24.198Z,58.43
2022-11-20T07:47:50.824Z,58.61
2022-11-20T07:50:17.937Z,58.54
2022-11-20T07:52:44.615Z,59.26
2022-11-20T07:55:11.615Z,58.36
2022-11-20T07:57:41.312Z,59.15
2022-11-20T08:00:10.400Z,58.78
2022-11-20T08:02:41.012Z,58.99
2022-11-20T08:05:12.208Z,59.06
2022-11-20T08:07:42.998Z,59.16
2022-11-20T08:10:11.768Z,58.82
2022-11-20T08:13:03.748Z,58.70
2022-11-20T08:15:30.570Z,59.33
2022-11-20T08:18:28.933Z,59.25
2022-11-20T08:20:50.694Z,59.76
2022-11-20T08:23:17.158Z,59.31
2022-11-20T08:25:43.605Z,59.19
2022-11-20T08:28:20.141Z,59.05
2022-11-20T08:30:51.044Z,59.31
2022-11-20T08:33:18.647Z,59.44
2022-11-20T08:35:45.167Z,59.76
2022-11-20T08:38:11.648Z,59.42
2022-11-20T08:40:41.058Z,59.89
2022-11-20T08:43:10.617Z,59.84
2022-11-20T08:45:37.083Z,59.68
2022-11-20T08:48:08.928Z,59.67
2022-11-20T08:50:35.412Z,59.58
2022-11-20T08:53:05.825Z,59.55
2022-11-20T08:55:32.609Z,59.92
2022-11-20T08:57:59.187Z,59.98
2022-11-20T09:00:25.756Z,60.10
2022-11-20T09:02:54.943Z,59.99
2022-11-20T09:05:21.482Z,60.44
2022-11-20T09:07:48.069Z,60.25
2022-11-20T09:10:23.974Z,60.54
2022-11-20T09:12:51.679Z,60.72
2022-11-20T09:15:18.593Z,60.87
2022-11-20T09:17:57.495Z,60.44
2022-11-20T09:20:31.540Z,61.02
2022-11-20T09:23:00.881Z,60.74
2022-11-20T09:25:27.424Z,61.28
2022-11-20T09:28:00.218Z,61.17
2022-11-20T09:30:28.780Z,60.70
2022-11-20T09:32:55.220Z,60.97
2022-11-20T09:35:24.310Z,61.55
2022-11-20T09:37:50.951Z,61.52
2022-11-20T09:40:28.663Z,61.64
2022-11-20T09:43:12.212Z,62.01
2022-11-20T09:45:45.220Z,60.96
2022-11-20T09:48:27.438Z,61.47
2022-11-20T09:51:00.518Z,61.65
2022-11-20T09:53:59.816Z,61.99
2022-11-20T09:56:27.048Z,62.30
2022-11-20T09:58:58.598Z,62.00
2022-11-20T10:01:32.968Z,62.11
2022-11-20T10:04:05.619Z,62.34
2022-11-20T10:06:45.110Z,61.73
2022-11-20T10:09:14.514Z,62.25
2022-11-20T10:12:18.148Z,61.76
2022-11-20T10:15:02.913Z,63.00
2022-11-20T10:17:43.984Z,62.79
2022-11-20T10:20:49.679Z,62.03
2022-11-20T10:23:52.217Z,62.34
2022-11-20T10:26:24.256Z,62.79
2022-11-20T10:29:17.892Z,62.82
2022-11-20T10:31:48.800Z,62.94
2022-11-20T10:34:25.384Z,63.22
2022-11-20T10:37:04.607Z,63.28
2022-11-20T10:39:39.148Z,63.36
2022-11-20T10:42:15.527Z,63.53
2022-11-20T10:45:05.792Z,63.32
2022-11-20T10:47:33.705Z,63.69
2022-11-20T10:50:05.799Z,63.72
2022-11-20T10:52:32.085Z,63.20
2022-11-20T10:55:30.297Z,63.09
2022-11-20T10:58:23.196Z,63.77
2022-11-20T11:00:49.869Z,63.31
2022-11-20T11:03:29.127Z,63.56
2022-11-20T11:06:09.790Z,63.89
2022-11-20T11:08:39.583Z,63.81
2022-11-20T11:11:29.882Z,63.90
2022-11-20T11:14:13.918Z,63.91
2022-11-20T11:17:00.383Z,64.03
2022-11-20T11:19:26.802Z,63.80
2022-11-20T11:21:56.165Z,63.79
2022-11-20T11:24:46.518Z,64.42
2022-11-20T11:27:18.654Z,64.08
2022-11-20T11:29:48.525Z,64.51
2022-11-20T11:32:22.789Z,64.47
2022-11-20T11:35:04.156Z,64.17
2022-11-20T11:37:38.971Z,64.27
2022-11-20T11:40:24.750Z,64.77
2022-11-20T11:43:02.186Z,65.08
2022-11-20T11:45:31.810Z,64.83
2022-11-20T11:48:02.066Z,65.64
2022-11-20T11:50:30.163Z,65.40
2022-11-20T11:53:19.104Z,65.08
2022-11-20T11:56:12.327Z,65.17
2022-11-20T11:59:12.607Z,65.47
2022-11-20T12:01:51.010Z,65.41
2022-11-20T12:04:29.853Z,65.50
2022-11-20T12:07:30.950Z,65.80
2022-11-20T12:09:58.542Z,66.64
2022-11-20T12:13:05.056Z,66.07
2022-11-20T12:15:38.592Z,66.39
2022-11-20T12:18:14.863Z,66.99
2022-11-20T12:20:54.422Z,67.09
2022-11-20T12:23:36.762Z,67.22
2022-11-20T12:26:14.971Z,67.41
2022-11-20T12:28:58.574Z,66.85
2022-11-20T12:31:55.496Z,67.33
2022-11-20T12:34:38.961Z,67.62
2022-11-20T12:37:20.568Z,67.19
2022-11-20T12:39:51.819Z,67.31
2022-11-20T12:42:45.673Z,67.32
2022-11-20T12:45:30.334Z,68.04
2022-11-20T12:48:18.040Z,68.02
2022-11-20T12:51:16.659Z,68.46
2022-11-20T12:53:59.074Z,68.47
2022-11-20T12:56:25.528Z,68.34
2022-11-20T12:59:12.176Z,68.08
2022-11-20T13:01:53.757Z,68.33
2022-11-20T13:04:57.759Z,68.76
2022-11-20T13:07:29.469Z,68.65
2022-11-20T13:09:56.710Z,69.07
2022-11-20T13:12:31.114Z,69.18
2022-11-20T13:15:15.986Z,69.13
2022-11-20T13:18:02.245Z,68.64
2022-11-20T13:20:31.184Z,69.18
2022-11-20T13:23:00.993Z,69.64
2022-11-20T13:25:28.724Z,69.46
2022-11-20T13:28:00.303Z,69.65
2022-11-20T13:30:28.970Z,69.36
2022-11-20T13:33:09.729Z,69.48
2022-11-20T13:35:41.435Z,70.00
2022-11-20T13:38:13.421Z,69.54
2022-11-20T13:41:22.386Z,69.53
2022-11-20T13:43:49.421Z,69.98
2022-11-20T13:46:16.255Z,70.62
2022-11-20T13:48:49.888Z,70.78
2022-11-20T13:51:21.899Z,70.82
2022-11-20T13:54:07.586Z,70.84
2022-11-20T13:56:55.854Z,70.77
2022-11-20T13:59:37.497Z,71.09
2022-11-20T14:02:07.141Z,71.03
2022-11-20T14:04:42.073Z,70.71
2022-11-20T14:07:10.134Z,71.01
2022-11-20T14:09:36.642Z,70.83
2022-11-20T14:12:10.501Z,71.31
2022-11-20T14:14:38.043Z,70.70
2022-11-20T14:17:21.479Z,70.92
2022-11-20T14:19:52.862Z,70.79
2022-11-20T14:22:26.996Z,70.73
2022-11-20T14:25:28.898Z,70.88
2022-11-20T14:28:01.169Z,71.33
2022-11-20T14:30:37.227Z,71.16
2022-11-20T14:33:07.506Z,71.21
2022-11-20T14:35:44.033Z,71.10
2022-11-20T14:38:15.057Z,71.34
2022-11-20T14:40:43.245Z,71.15
2022-11-20T14:43:27.709Z,71.04
2022-11-20T14:46:03.846Z,71.53
2022-11-20T14:48:40.321Z,71.16
2022-11-20T14:51:06.953Z,71.69
2022-11-20T14:53:36.456Z,71.61
2022-11-20T14:56:03.982Z,71.79
2022-11-20T14:58:34.322Z,72.09
2022-11-20T15:01:09.017Z,72.45
2022-11-20T15:03:42.552Z,72.50
2022-11-20T15:06:14.588Z,72.92
2022-11-20T15:08:52.156Z,72.73
2022-11-20T15:11:21.940Z,72.35
2022-11-20T15:13:48.475Z,72.59
2022-11-20T15:16:20.907Z,72.80
2022-11-20T15:18:48.214Z,72.94
2022-11-20T15:21:19.887Z,72.59
2022-11-20T15:23:47.040Z,72.45
2022-11-20T15:26:19.893Z,72.60
2022-11-20T15:28:51.222Z,72.74
2022-11-20T15:31:23.935Z,72.46
2022-11-20T15:33:50.975Z,72.48
2022-11-20T15:36:17.436Z,72.86
2022-11-20T15:38:43.882Z,72.46
2022-11-20T15:41:12.191Z,72.75
2022-11-20T15:43:39.475Z,72.70
2022-11-20T15:46:10.225Z,72.67
2022-11-20T15:49:06.663Z,72.55
2022-11-20T15:52:02.557Z,72.28
2022-11-20T15:54:35.135Z,72.66
2022-11-20T15:57:03.205Z,72.58
2022-11-20T15:59:29.618Z,72.91
2022-11-20T16:01:57.217Z,72.77
2022-11-20T16:04:26.718Z,72.92
2022-11-20T16:06:53.167Z,72.80
2022-11-20T16:09:19.685Z,72.69
2022-11-20T16:11:48.854Z,72.87
2022-11-20T16:14:36.622Z,72.69
2022-11-20T16:17:03.817Z,72.72
2022-11-20T16:19:30.163Z,73.09
2022-11-20T16:22:02.943Z,72.74
2022-11-20T16:24:29.707Z,72.73
2022-11-20T16:26:57.014Z,73.03
2022-11-20T16:29:23.497Z,72.93
2022-11-20T16:31:50.190Z,72.79
2022-11-20T16:34:19.533Z,72.90
2022-11-20T16:36:46.004Z,73.11
2022-11-20T16:39:13.170Z,72.71
2022-11-20T16:41:39.681Z,72.95
2022-11-20T16:44:11.086Z,72.82
2022-11-20T16:46:37.940Z,72.83
2022-11-20T16:49:06.918Z,72.98
2022-11-20T16:51:39.258Z,73.05
2022-11-20T16:54:07.126Z,73.29
2022-11-20T16:56:33.899Z,72.87
2022-11-20T16:59:01.178Z,72.83
2022-11-20T17:01:29.265Z,72.99
2022-11-20T17:03:58.754Z,73.14
2022-11-20T17:06:28.154Z,73.28
2022-11-20T17:08:57.240Z,73.42
2022-11-20T17:11:25.041Z,73.26
2022-11-20T17:13:52.017Z,73.26
2022-11-20T17:16:21.637Z,73.37
2022-11-20T17:18:50.204Z,73.21
2022-11-20T17:21:18.101Z,73.20
2022-11-20T17:23:45.746Z,72.88
2022-11-20T17:26:16.439Z,73.06
2022-11-20T17:28:43.362Z,73.31
2022-11-20T17:31:13.063Z,73.49
2022-11-20T17:33:41.418Z,72.75
2022-11-20T17:36:09.725Z,73.53
2022-11-20T17:38:36.813Z,73.23
2022-11-20T17:41:05.204Z,73.20
2022-11-20T17:43:35.697Z,73.40
2022-11-20T17:46:19.524Z,73.10
2022-11-20T17:48:47.511Z,73.27
2022-11-20T17:51:22.979Z,73.82
2022-11-20T17:53:52.044Z,73.73
2022-11-20T17:56:37.465Z,73.65
2022-11-20T17:59:08.702Z,73.33
2022-11-20T18:01:35.463Z,73.34
2022-11-20T18:04:02.520Z,73.40
2022-11-20T18:06:32.679Z,73.55
2022-11-20T18:09:00.251Z,73.74
2022-11-20T18:11:29.231Z,73.66
2022-11-20T18:14:16.819Z,73.66
2022-11-20T18:16:59.338Z,73.81
2022-11-20T18:19:32.197Z,73.05
2022-11-20T18:22:01.382Z,73.62
2022-11-20T18:24:27.847Z,73.55
2022-11-20T18:26:54.248Z,73.94
2022-11-20T18:29:20.902Z,74.03
2022-11-20T18:31:54.103Z,73.83
2022-11-20T18:34:20.775Z,73.92
2022-11-20T18:36:47.515Z,73.86
2022-11-20T18:39:14.850Z,73.70
2022-11-20T18:42:00.569Z,73.65
2022-11-20T18:44:48.033Z,73.52
2022-11-20T18:47:18.294Z,73.62
2022-11-20T18:49:50.779Z,73.67
2022-11-20T18:52:18.746Z,73.76
2022-11-20T18:54:45.579Z,73.37
2022-11-20T18:57:14.821Z,73.41
2022-11-20T18:59:44.639Z,73.84
2022-11-20T19:02:13.189Z,73.65
2022-11-20T19:04:40.019Z,73.56
2022-11-20T19:07:06.651Z,73.81
2022-11-20T19:09:33.718Z,73.64
2022-11-20T19:12:00.170Z,73.51
2022-11-20T19:14:26.674Z,73.82
2022-11-20T19:16:53.262Z,73.56
2022-11-20T19:19:19.808Z,73.46
2022-11-20T19:21:48.307Z,73.61
2022-11-20T19:24:14.928Z,73.66
2022-11-20T19:26:41.520Z,73.59
2022-11-20T19:29:13.557Z,73.55
2022-11-20T19:31:39.982Z,73.82
2022-11-20T19:34:06.525Z,73.69
2022-11-20T19:36:35.108Z,73.49
2022-11-20T19:39:02.227Z,73.87
2022-11-20T19:41:31.595Z,73.54
2022-11-20T19:43:59.907Z,73.74
2022-11-20T19:46:28.074Z,73.61
2022-11-20T19:48:55.950Z,73.64
2022-11-20T19:51:27.937Z,73.57
2022-11-20T19:53:58.553Z,73.58
2022-11-20T19:56:26.522Z,73.72
2022-11-20T19:58:55.359Z,73.31
2022-11-20T20:01:24.536Z,73.80
2022-11-20T20:03:51.859Z,73.81
2022-11-20T20:06:24.062Z,73.56
2022-11-20T20:09:12.014Z,73.47
2022-11-20T20:11:40.018Z,73.24
2022-11-20T20:14:16.297Z,73.42
2022-11-20T20:16:43.177Z,73.51
2022-11-20T20:19:14.838Z,73.61
2022-11-20T20:21:41.413Z,73.56
2022-11-20T20:24:09.841Z,73.34
2022-11-20T20:26:36.409Z,73.56
2022-11-20T20:29:06.725Z,73.62
2022-11-20T20:31:33.706Z,73.56
2022-11-20T20:34:03.454Z,73.42
2022-11-20T20:36:30.036Z,73.61
2022-11-20T20:38:59.703Z,73.74
2022-11-20T20:41:26.538Z,73.54
2022-11-20T20:44:12.169Z,73.59
2022-11-20T20:46:39.320Z,73.56
2022-11-20T20:49:05.837Z,73.55
2022-11-20T20:51:32.284Z,73.62
2022-11-20T20:53:59.638Z,73.70
2022-11-20T20:56:26.153Z,73.82
2022-11-20T20:58:52.631Z,73.70
2022-11-20T21:01:19.989Z,73.95
2022-11-20T21:03:46.759Z,73.64
2022-11-20T21:06:13.603Z,73.55
2022-11-20T21:08:41.657Z,73.44
2022-11-20T21:11:12.778Z,73.73
2022-11-20T21:13:40.966Z,73.69
2022-11-20T21:16:07.523Z,73.65
2022-11-20T21:18:34.294Z,73.72
2022-11-20T21:21:22.388Z,73.56
2022-11-20T21:23:49.026Z,73.51
2022-11-20T21:26:16.192Z,73.89
2022-11-20T21:28:43.246Z,73.45
2022-11-20T21:31:14.444Z,73.74
2022-11-20T21:33:43.162Z,73.55
2022-11-20T21:36:14.371Z,73.58
2022-11-20T21:38:40.985Z,73.69
2022-11-20T21:41:09.331Z,73.71
2022-11-20T21:43:36.063Z,73.58
2022-11-20T21:46:04.517Z,73.66
2022-11-20T21:48:32.519Z,73.52
2022-11-20T21:51:29.532Z,73.75
2022-11-20T21:53:56.531Z,73.49
2022-11-20T21:56:25.085Z,73.68
2022-11-20T21:58:53.184Z,73.57
2022-11-20T22:01:22.289Z,73.64
2022-11-20T22:03:50.641Z,73.29
2022-11-20T22:06:18.156Z,73.75
2022-11-20T22:08:45.183Z,73.86
2022-11-20T22:11:14.685Z,73.36
2022-11-20T22:13:59.794Z,73.50
2022-11-20T22:16:26.861Z,73.78
2022-11-20T22:18:55.501Z,73.59
2022-11-20T22:21:24.330Z,73.71
2022-11-20T22:23:51.381Z,73.58
2022-11-20T22:26:20.255Z,73.68
2022-11-20T22:28:52.057Z,73.73
2022-11-20T22:31:20.439Z,73.77
2022-11-20T22:33:47.467Z,73.96
2022-11-20T22:36:19.515Z,73.72
2022-11-20T22:38:46.002Z,74.06
2022-11-20T22:41:13.746Z,74.03
2022-11-20T22:43:41.259Z,73.90
2022-11-20T22:46:07.559Z,73.97
2022-11-20T22:48:35.290Z,73.44
2022-11-20T22:51:04.055Z,73.82
2022-11-20T22:53:30.773Z,73.71
2022-11-20T22:55:59.470Z,73.75
2022-11-20T22:58:30.267Z,73.68
2022-11-20T23:01:18.331Z,73.81
2022-11-20T23:03:47.226Z,73.66
2022-11-20T23:06:14.828Z,73.68
2022-11-20T23:08:42.038Z,73.79
2022-11-20T23:11:14.445Z,73.97
2022-11-20T23:13:41.695Z,73.29
2022-11-20T23:16:11.415Z,73.84
2022-11-20T23:18:38.640Z,73.71
2022-11-20T23:21:18.890Z,73.48
2022-11-20T23:23:50.803Z,73.64
2022-11-20T23:26:19.354Z,73.92
2022-11-20T23:28:48.498Z,73.73
2022-11-20T23:31:16.519Z,73.60
2022-11-20T23:33:44.886Z,73.69
2022-11-20T23:36:12.459Z,73.89
2022-11-20T23:38:39.575Z,73.91
2022-11-20T23:41:06.587Z,74.08
2022-11-20T23:43:33.687Z,73.61
2022-11-20T23:46:01.617Z,73.87
2022-11-20T23:48:30.713Z,73.69
2022-11-20T23:51:00.254Z,73.66
2022-11-20T23:53:27.384Z,73.94
2022-11-20T23:55:56.919Z,73.85
2022-11-20T23:58:25.279Z,74.00
